Terminal Aerodrome Forecast
Issued by NWS Louisville, KY

Home | Current Version | Previous Version | Text Only | Print | Product List | Glossary On
Versions: 1 2 3 4 5 6 7 8 9 10 11 12 13 14 15 16 17 18 19 20 21
000
FTUS43 KLMK 152300
TAFBWG
TAF
KBWG 152325Z 1600/1624 36007KT P6SM FEW060
     FM160200 00000KT P6SM SKC
     FM161500 12008KT P6SM SCT250=

USA.gov is the U.S. government's official web portal to all federal, state and local government web resources and services.